sensor_id;sensor_type;location;lat;lon;timestamp;P1;durP1;ratioP1;P2;durP2;ratioP2
4084;SDS011;2057;50.858;6.572;2023-08-20T00:00:39;5.73;;;3.43;;
4084;SDS011;2057;50.858;6.572;2023-08-20T00:03:10;8.03;;;3.47;;
4084;SDS011;2057;50.858;6.572;2023-08-20T00:05:39;13.93;;;4.17;;
4084;SDS011;2057;50.858;6.572;2023-08-20T00:08:05;6.57;;;3.53;;
4084;SDS011;2057;50.858;6.572;2023-08-20T00:10:31;8.20;;;3.23;;
4084;SDS011;2057;50.858;6.572;2023-08-20T00:12:56;17.47;;;3.53;;
4084;SDS011;2057;50.858;6.572;2023-08-20T00:15:22;13.90;;;3.70;;
4084;SDS011;2057;50.858;6.572;2023-08-20T00:17:51;12.70;;;3.90;;
4084;SDS011;2057;50.858;6.572;2023-08-20T00:20:17;6.43;;;3.70;;
4084;SDS011;2057;50.858;6.572;2023-08-20T00:22:46;8.20;;;3.30;;
4084;SDS011;2057;50.858;6.572;2023-08-20T00:25:15;14.80;;;4.70;;
4084;SDS011;2057;50.858;6.572;2023-08-20T00:27:41;8.33;;;3.57;;
4084;SDS011;2057;50.858;6.572;2023-08-20T00:30:10;11.07;;;3.77;;
4084;SDS011;2057;50.858;6.572;2023-08-20T00:32:36;6.23;;;3.90;;
4084;SDS011;2057;50.858;6.572;2023-08-20T00:35:02;11.97;;;4.03;;
4084;SDS011;2057;50.858;6.572;2023-08-20T00:37:29;8.67;;;3.50;;
4084;SDS011;2057;50.858;6.572;2023-08-20T00:39:54;8.70;;;3.80;;
4084;SDS011;2057;50.858;6.572;2023-08-20T00:42:22;10.83;;;3.80;;
4084;SDS011;2057;50.858;6.572;2023-08-20T00:44:52;6.77;;;4.03;;
4084;SDS011;2057;50.858;6.572;2023-08-20T00:47:20;9.80;;;3.90;;
4084;SDS011;2057;50.858;6.572;2023-08-20T00:49:47;9.33;;;4.23;;
4084;SDS011;2057;50.858;6.572;2023-08-20T00:52:13;7.93;;;3.73;;
4084;SDS011;2057;50.858;6.572;2023-08-20T00:54:40;9.70;;;4.70;;
4084;SDS011;2057;50.858;6.572;2023-08-20T00:57:06;17.73;;;5.20;;
4084;SDS011;2057;50.858;6.572;2023-08-20T00:59:33;25.10;;;4.47;;
4084;SDS011;2057;50.858;6.572;2023-08-20T01:02:01;10.43;;;4.30;;
4084;SDS011;2057;50.858;6.572;2023-08-20T01:04:28;15.80;;;4.33;;
4084;SDS011;2057;50.858;6.572;2023-08-20T01:07:08;19.27;;;5.20;;
4084;SDS011;2057;50.858;6.572;2023-08-20T01:12:19;6.97;;;5.50;;
4084;SDS011;2057;50.858;6.572;2023-08-20T01:14:45;11.80;;;5.63;;
4084;SDS011;2057;50.858;6.572;2023-08-20T01:17:12;15.67;;;6.37;;
4084;SDS011;2057;50.858;6.572;2023-08-20T01:19:38;18.67;;;6.50;;
4084;SDS011;2057;50.858;6.572;2023-08-20T01:30:22;8.87;;;6.77;;
4084;SDS011;2057;50.858;6.572;2023-08-20T01:32:54;18.10;;;7.13;;
4084;SDS011;2057;50.858;6.572;2023-08-20T01:35:20;15.73;;;7.77;;
4084;SDS011;2057;50.858;6.572;2023-08-20T01:37:50;15.10;;;7.70;;
4084;SDS011;2057;50.858;6.572;2023-08-20T01:40:15;9.10;;;6.87;;
4084;SDS011;2057;50.858;6.572;2023-08-20T01:42:40;13.77;;;6.57;;
4084;SDS011;2057;50.858;6.572;2023-08-20T01:45:09;10.47;;;6.60;;
4084;SDS011;2057;50.858;6.572;2023-08-20T01:47:35;12.60;;;6.17;;
4084;SDS011;2057;50.858;6.572;2023-08-20T01:50:03;13.70;;;7.50;;
4084;SDS011;2057;50.858;6.572;2023-08-20T01:52:29;14.83;;;7.20;;
4084;SDS011;2057;50.858;6.572;2023-08-20T01:54:55;21.00;;;6.50;;
4084;SDS011;2057;50.858;6.572;2023-08-20T01:57:20;13.67;;;6.60;;
4084;SDS011;2057;50.858;6.572;2023-08-20T01:59:46;16.40;;;7.00;;
4084;SDS011;2057;50.858;6.572;2023-08-20T02:02:15;13.50;;;6.77;;
4084;SDS011;2057;50.858;6.572;2023-08-20T02:04:40;12.23;;;7.33;;
4084;SDS011;2057;50.858;6.572;2023-08-20T02:07:06;9.57;;;6.70;;
4084;SDS011;2057;50.858;6.572;2023-08-20T02:09:32;15.67;;;7.60;;
4084;SDS011;2057;50.858;6.572;2023-08-20T02:12:00;10.90;;;6.47;;
4084;SDS011;2057;50.858;6.572;2023-08-20T02:14:25;9.10;;;6.23;;
4084;SDS011;2057;50.858;6.572;2023-08-20T02:16:54;15.30;;;6.00;;
4084;SDS011;2057;50.858;6.572;2023-08-20T02:19:19;8.77;;;5.73;;
4084;SDS011;2057;50.858;6.572;2023-08-20T02:21:47;9.97;;;6.13;;
4084;SDS011;2057;50.858;6.572;2023-08-20T02:24:15;10.40;;;6.57;;
4084;SDS011;2057;50.858;6.572;2023-08-20T02:26:43;20.10;;;6.07;;
4084;SDS011;2057;50.858;6.572;2023-08-20T02:29:08;14.63;;;6.73;;
4084;SDS011;2057;50.858;6.572;2023-08-20T02:31:33;14.47;;;6.67;;
4084;SDS011;2057;50.858;6.572;2023-08-20T02:33:59;13.80;;;6.67;;
4084;SDS011;2057;50.858;6.572;2023-08-20T02:36:24;10.00;;;7.10;;
4084;SDS011;2057;50.858;6.572;2023-08-20T02:38:49;12.80;;;7.17;;
4084;SDS011;2057;50.858;6.572;2023-08-20T02:41:17;7.97;;;6.00;;
4084;SDS011;2057;50.858;6.572;2023-08-20T02:43:45;9.40;;;6.43;;
4084;SDS011;2057;50.858;6.572;2023-08-20T02:46:10;13.83;;;5.80;;
4084;SDS011;2057;50.858;6.572;2023-08-20T02:48:36;8.70;;;6.70;;
4084;SDS011;2057;50.858;6.572;2023-08-20T02:51:03;14.43;;;6.27;;
4084;SDS011;2057;50.858;6.572;2023-08-20T02:53:29;16.53;;;6.30;;
4084;SDS011;2057;50.858;6.572;2023-08-20T02:55:54;10.33;;;5.53;;
4084;SDS011;2057;50.858;6.572;2023-08-20T02:58:19;7.90;;;5.77;;
4084;SDS011;2057;50.858;6.572;2023-08-20T03:00:45;9.40;;;6.27;;
4084;SDS011;2057;50.858;6.572;2023-08-20T03:03:11;13.03;;;6.13;;
4084;SDS011;2057;50.858;6.572;2023-08-20T03:05:36;13.00;;;6.10;;
4084;SDS011;2057;50.858;6.572;2023-08-20T03:08:02;17.80;;;6.90;;
4084;SDS011;2057;50.858;6.572;2023-08-20T03:10:30;10.17;;;6.30;;
4084;SDS011;2057;50.858;6.572;2023-08-20T03:12:59;12.07;;;6.83;;
4084;SDS011;2057;50.858;6.572;2023-08-20T03:15:25;9.80;;;6.13;;
4084;SDS011;2057;50.858;6.572;2023-08-20T03:17:51;16.00;;;7.40;;
4084;SDS011;2057;50.858;6.572;2023-08-20T03:20:16;19.73;;;7.73;;
4084;SDS011;2057;50.858;6.572;2023-08-20T03:22:44;10.53;;;6.63;;
4084;SDS011;2057;50.858;6.572;2023-08-20T03:25:10;10.03;;;6.70;;
4084;SDS011;2057;50.858;6.572;2023-08-20T03:27:37;24.23;;;7.43;;
4084;SDS011;2057;50.858;6.572;2023-08-20T03:30:03;26.40;;;7.90;;
4084;SDS011;2057;50.858;6.572;2023-08-20T03:32:29;25.80;;;7.50;;
4084;SDS011;2057;50.858;6.572;2023-08-20T03:34:55;30.43;;;8.50;;
4084;SDS011;2057;50.858;6.572;2023-08-20T03:37:21;21.73;;;9.20;;
4084;SDS011;2057;50.858;6.572;2023-08-20T03:39:47;21.17;;;8.53;;
4084;SDS011;2057;50.858;6.572;2023-08-20T03:42:12;28.30;;;9.73;;
4084;SDS011;2057;50.858;6.572;2023-08-20T03:44:37;24.10;;;10.07;;
4084;SDS011;2057;50.858;6.572;2023-08-20T03:47:05;27.73;;;9.60;;
4084;SDS011;2057;50.858;6.572;2023-08-20T03:49:33;27.30;;;9.80;;
4084;SDS011;2057;50.858;6.572;2023-08-20T03:51:58;18.20;;;9.23;;
4084;SDS011;2057;50.858;6.572;2023-08-20T03:54:27;27.30;;;9.83;;
4084;SDS011;2057;50.858;6.572;2023-08-20T03:56:56;29.03;;;10.33;;
4084;SDS011;2057;50.858;6.572;2023-08-20T03:59:21;19.60;;;10.43;;
4084;SDS011;2057;50.858;6.572;2023-08-20T04:01:49;19.13;;;11.10;;
4084;SDS011;2057;50.858;6.572;2023-08-20T04:04:14;25.20;;;13.10;;
4084;SDS011;2057;50.858;6.572;2023-08-20T04:06:42;17.97;;;10.80;;
4084;SDS011;2057;50.858;6.572;2023-08-20T04:09:07;18.03;;;11.20;;
4084;SDS011;2057;50.858;6.572;2023-08-20T04:11:34;25.63;;;11.40;;
4084;SDS011;2057;50.858;6.572;2023-08-20T04:13:59;30.50;;;13.33;;
4084;SDS011;2057;50.858;6.572;2023-08-20T04:16:25;25.10;;;13.10;;
4084;SDS011;2057;50.858;6.572;2023-08-20T04:18:50;27.63;;;12.50;;
4084;SDS011;2057;50.858;6.572;2023-08-20T04:21:15;25.70;;;13.00;;
4084;SDS011;2057;50.858;6.572;2023-08-20T04:23:41;28.30;;;12.17;;
4084;SDS011;2057;50.858;6.572;2023-08-20T04:26:09;19.50;;;13.80;;
4084;SDS011;2057;50.858;6.572;2023-08-20T04:28:34;21.33;;;12.37;;
4084;SDS011;2057;50.858;6.572;2023-08-20T04:30:59;22.67;;;14.37;;
4084;SDS011;2057;50.858;6.572;2023-08-20T04:33:25;21.70;;;11.30;;
4084;SDS011;2057;50.858;6.572;2023-08-20T04:35:53;18.37;;;13.17;;
4084;SDS011;2057;50.858;6.572;2023-08-20T04:38:21;24.23;;;12.40;;
4084;SDS011;2057;50.858;6.572;2023-08-20T04:40:47;19.03;;;11.07;;
4084;SDS011;2057;50.858;6.572;2023-08-20T04:43:13;28.03;;;12.37;;
4084;SDS011;2057;50.858;6.572;2023-08-20T04:45:44;17.83;;;11.70;;
4084;SDS011;2057;50.858;6.572;2023-08-20T04:48:09;23.73;;;12.77;;
4084;SDS011;2057;50.858;6.572;2023-08-20T04:50:37;21.43;;;10.50;;
4084;SDS011;2057;50.858;6.572;2023-08-20T04:53:02;22.03;;;11.70;;
4084;SDS011;2057;50.858;6.572;2023-08-20T04:55:31;23.37;;;13.00;;
4084;SDS011;2057;50.858;6.572;2023-08-20T04:57:56;24.27;;;10.67;;
4084;SDS011;2057;50.858;6.572;2023-08-20T05:00:22;19.53;;;11.13;;
4084;SDS011;2057;50.858;6.572;2023-08-20T05:02:47;21.33;;;12.30;;
4084;SDS011;2057;50.858;6.572;2023-08-20T05:05:13;27.80;;;13.67;;
4084;SDS011;2057;50.858;6.572;2023-08-20T05:07:38;21.93;;;11.20;;
4084;SDS011;2057;50.858;6.572;2023-08-20T05:10:07;20.10;;;12.00;;
4084;SDS011;2057;50.858;6.572;2023-08-20T05:12:33;23.00;;;12.60;;
4084;SDS011;2057;50.858;6.572;2023-08-20T05:15:01;22.40;;;12.90;;
4084;SDS011;2057;50.858;6.572;2023-08-20T05:17:28;15.23;;;11.60;;
4084;SDS011;2057;50.858;6.572;2023-08-20T05:19:56;18.60;;;12.87;;
4084;SDS011;2057;50.858;6.572;2023-08-20T05:22:22;13.73;;;10.80;;
4084;SDS011;2057;50.858;6.572;2023-08-20T05:24:49;21.23;;;12.20;;
4084;SDS011;2057;50.858;6.572;2023-08-20T05:27:17;21.50;;;12.30;;
4084;SDS011;2057;50.858;6.572;2023-08-20T05:29:45;24.27;;;12.97;;
4084;SDS011;2057;50.858;6.572;2023-08-20T05:32:11;23.83;;;13.63;;
4084;SDS011;2057;50.858;6.572;2023-08-20T05:34:36;21.30;;;13.90;;
4084;SDS011;2057;50.858;6.572;2023-08-20T05:37:04;43.67;;;13.20;;
4084;SDS011;2057;50.858;6.572;2023-08-20T05:39:36;26.50;;;13.80;;
4084;SDS011;2057;50.858;6.572;2023-08-20T05:42:03;20.57;;;12.80;;
4084;SDS011;2057;50.858;6.572;2023-08-20T05:44:29;28.43;;;15.17;;
4084;SDS011;2057;50.858;6.572;2023-08-20T05:46:58;20.20;;;14.30;;
4084;SDS011;2057;50.858;6.572;2023-08-20T05:49:23;29.93;;;14.20;;
4084;SDS011;2057;50.858;6.572;2023-08-20T05:51:49;25.77;;;16.10;;
4084;SDS011;2057;50.858;6.572;2023-08-20T05:54:14;25.77;;;13.73;;
4084;SDS011;2057;50.858;6.572;2023-08-20T05:56:40;24.33;;;16.10;;
4084;SDS011;2057;50.858;6.572;2023-08-20T05:59:05;26.90;;;16.57;;
4084;SDS011;2057;50.858;6.572;2023-08-20T06:01:31;23.30;;;16.70;;
4084;SDS011;2057;50.858;6.572;2023-08-20T06:03:59;26.40;;;15.90;;
4084;SDS011;2057;50.858;6.572;2023-08-20T06:06:25;22.20;;;14.50;;
4084;SDS011;2057;50.858;6.572;2023-08-20T06:08:51;24.67;;;16.60;;
4084;SDS011;2057;50.858;6.572;2023-08-20T06:11:19;29.23;;;16.73;;
4084;SDS011;2057;50.858;6.572;2023-08-20T06:13:45;24.63;;;15.03;;
4084;SDS011;2057;50.858;6.572;2023-08-20T06:16:10;23.20;;;15.10;;
4084;SDS011;2057;50.858;6.572;2023-08-20T06:18:36;25.27;;;15.70;;
4084;SDS011;2057;50.858;6.572;2023-08-20T06:21:02;29.70;;;16.33;;
4084;SDS011;2057;50.858;6.572;2023-08-20T06:23:28;28.77;;;18.83;;
4084;SDS011;2057;50.858;6.572;2023-08-20T06:25:53;28.63;;;17.77;;
4084;SDS011;2057;50.858;6.572;2023-08-20T06:28:21;20.80;;;16.27;;
4084;SDS011;2057;50.858;6.572;2023-08-20T06:30:49;24.43;;;17.13;;
4084;SDS011;2057;50.858;6.572;2023-08-20T06:33:15;23.77;;;16.60;;
4084;SDS011;2057;50.858;6.572;2023-08-20T06:35:40;28.67;;;18.73;;
4084;SDS011;2057;50.858;6.572;2023-08-20T06:38:08;31.13;;;18.23;;
4084;SDS011;2057;50.858;6.572;2023-08-20T06:40:39;30.47;;;16.27;;
4084;SDS011;2057;50.858;6.572;2023-08-20T06:43:04;24.37;;;17.37;;
4084;SDS011;2057;50.858;6.572;2023-08-20T06:45:30;31.47;;;16.63;;
4084;SDS011;2057;50.858;6.572;2023-08-20T06:47:55;25.70;;;17.87;;
4084;SDS011;2057;50.858;6.572;2023-08-20T06:50:23;28.03;;;17.23;;
4084;SDS011;2057;50.858;6.572;2023-08-20T06:52:56;23.17;;;16.80;;
4084;SDS011;2057;50.858;6.572;2023-08-20T06:55:21;33.93;;;20.10;;
4084;SDS011;2057;50.858;6.572;2023-08-20T06:57:47;32.83;;;17.57;;
4084;SDS011;2057;50.858;6.572;2023-08-20T07:00:12;36.23;;;17.50;;
4084;SDS011;2057;50.858;6.572;2023-08-20T07:02:37;36.30;;;19.53;;
4084;SDS011;2057;50.858;6.572;2023-08-20T07:05:03;24.53;;;15.93;;
4084;SDS011;2057;50.858;6.572;2023-08-20T07:07:28;36.17;;;19.23;;
4084;SDS011;2057;50.858;6.572;2023-08-20T07:09:54;35.03;;;18.33;;
4084;SDS011;2057;50.858;6.572;2023-08-20T07:12:19;35.00;;;19.03;;
4084;SDS011;2057;50.858;6.572;2023-08-20T07:14:44;28.63;;;18.40;;
4084;SDS011;2057;50.858;6.572;2023-08-20T07:17:10;36.23;;;18.73;;
4084;SDS011;2057;50.858;6.572;2023-08-20T07:19:37;32.33;;;19.00;;
4084;SDS011;2057;50.858;6.572;2023-08-20T07:22:02;25.40;;;18.17;;
4084;SDS011;2057;50.858;6.572;2023-08-20T07:24:28;27.70;;;18.47;;
4084;SDS011;2057;50.858;6.572;2023-08-20T07:26:55;25.97;;;16.10;;
4084;SDS011;2057;50.858;6.572;2023-08-20T07:29:25;28.63;;;17.90;;
4084;SDS011;2057;50.858;6.572;2023-08-20T07:31:51;29.27;;;17.20;;
4084;SDS011;2057;50.858;6.572;2023-08-20T07:34:17;28.60;;;17.10;;
4084;SDS011;2057;50.858;6.572;2023-08-20T07:36:45;34.70;;;15.80;;
4084;SDS011;2057;50.858;6.572;2023-08-20T07:39:12;32.87;;;17.70;;
4084;SDS011;2057;50.858;6.572;2023-08-20T07:41:39;27.30;;;16.47;;
4084;SDS011;2057;50.858;6.572;2023-08-20T07:44:05;27.20;;;16.97;;
4084;SDS011;2057;50.858;6.572;2023-08-20T07:46:30;26.73;;;15.60;;
4084;SDS011;2057;50.858;6.572;2023-08-20T07:48:56;29.10;;;18.40;;
4084;SDS011;2057;50.858;6.572;2023-08-20T07:51:23;29.67;;;16.80;;
4084;SDS011;2057;50.858;6.572;2023-08-20T07:53:51;31.73;;;14.67;;
4084;SDS011;2057;50.858;6.572;2023-08-20T07:56:19;28.03;;;17.60;;
4084;SDS011;2057;50.858;6.572;2023-08-20T07:58:44;28.87;;;18.70;;
4084;SDS011;2057;50.858;6.572;2023-08-20T08:01:12;24.73;;;17.03;;
4084;SDS011;2057;50.858;6.572;2023-08-20T08:03:39;30.93;;;18.00;;
4084;SDS011;2057;50.858;6.572;2023-08-20T08:06:05;27.70;;;17.87;;
4084;SDS011;2057;50.858;6.572;2023-08-20T08:08:32;29.40;;;16.70;;
4084;SDS011;2057;50.858;6.572;2023-08-20T08:11:00;24.40;;;16.30;;
4084;SDS011;2057;50.858;6.572;2023-08-20T08:13:25;23.67;;;15.07;;
4084;SDS011;2057;50.858;6.572;2023-08-20T08:15:51;26.40;;;14.97;;
4084;SDS011;2057;50.858;6.572;2023-08-20T08:18:17;20.97;;;14.00;;
4084;SDS011;2057;50.858;6.572;2023-08-20T08:20:43;34.93;;;16.33;;
4084;SDS011;2057;50.858;6.572;2023-08-20T08:23:09;28.73;;;17.97;;
4084;SDS011;2057;50.858;6.572;2023-08-20T08:25:34;28.50;;;16.10;;
4084;SDS011;2057;50.858;6.572;2023-08-20T08:27:59;21.37;;;14.93;;
4084;SDS011;2057;50.858;6.572;2023-08-20T08:30:25;21.60;;;13.53;;
4084;SDS011;2057;50.858;6.572;2023-08-20T08:32:50;21.03;;;14.13;;
4084;SDS011;2057;50.858;6.572;2023-08-20T08:35:19;21.90;;;13.37;;
4084;SDS011;2057;50.858;6.572;2023-08-20T08:37:44;18.70;;;12.90;;
4084;SDS011;2057;50.858;6.572;2023-08-20T08:40:10;22.30;;;14.53;;
4084;SDS011;2057;50.858;6.572;2023-08-20T08:42:35;24.40;;;15.23;;
4084;SDS011;2057;50.858;6.572;2023-08-20T08:45:03;24.80;;;15.20;;
4084;SDS011;2057;50.858;6.572;2023-08-20T08:47:29;23.97;;;14.77;;
4084;SDS011;2057;50.858;6.572;2023-08-20T08:49:55;23.17;;;13.00;;
4084;SDS011;2057;50.858;6.572;2023-08-20T08:52:25;19.77;;;12.83;;
4084;SDS011;2057;50.858;6.572;2023-08-20T08:54:55;20.30;;;12.13;;
4084;SDS011;2057;50.858;6.572;2023-08-20T08:57:23;25.07;;;14.10;;
4084;SDS011;2057;50.858;6.572;2023-08-20T08:59:48;27.00;;;14.17;;
4084;SDS011;2057;50.858;6.572;2023-08-20T09:02:13;24.37;;;13.30;;
4084;SDS011;2057;50.858;6.572;2023-08-20T09:04:42;21.53;;;12.63;;
4084;SDS011;2057;50.858;6.572;2023-08-20T09:07:11;22.17;;;14.60;;
4084;SDS011;2057;50.858;6.572;2023-08-20T09:09:38;24.23;;;15.00;;
4084;SDS011;2057;50.858;6.572;2023-08-20T09:12:16;20.07;;;13.70;;
4084;SDS011;2057;50.858;6.572;2023-08-20T09:14:51;25.60;;;14.27;;
4084;SDS011;2057;50.858;6.572;2023-08-20T09:17:17;22.20;;;15.57;;
4084;SDS011;2057;50.858;6.572;2023-08-20T09:19:44;28.50;;;16.13;;
4084;SDS011;2057;50.858;6.572;2023-08-20T09:22:13;29.53;;;16.30;;
4084;SDS011;2057;50.858;6.572;2023-08-20T09:24:43;20.40;;;13.40;;
4084;SDS011;2057;50.858;6.572;2023-08-20T09:27:27;20.10;;;13.70;;
4084;SDS011;2057;50.858;6.572;2023-08-20T09:29:53;23.17;;;11.90;;
4084;SDS011;2057;50.858;6.572;2023-08-20T09:32:22;15.40;;;10.10;;
4084;SDS011;2057;50.858;6.572;2023-08-20T09:34:51;21.83;;;11.80;;
4084;SDS011;2057;50.858;6.572;2023-08-20T09:37:18;24.90;;;10.87;;
4084;SDS011;2057;50.858;6.572;2023-08-20T09:39:46;24.00;;;11.50;;
4084;SDS011;2057;50.858;6.572;2023-08-20T09:42:14;18.27;;;10.20;;
4084;SDS011;2057;50.858;6.572;2023-08-20T09:44:41;19.67;;;10.83;;
4084;SDS011;2057;50.858;6.572;2023-08-20T09:47:08;20.63;;;9.00;;
4084;SDS011;2057;50.858;6.572;2023-08-20T09:49:38;14.97;;;7.73;;
4084;SDS011;2057;50.858;6.572;2023-08-20T09:52:09;12.87;;;10.40;;
4084;SDS011;2057;50.858;6.572;2023-08-20T09:57:30;16.40;;;8.20;;
4084;SDS011;2057;50.858;6.572;2023-08-20T10:00:00;13.37;;;7.57;;
4084;SDS011;2057;50.858;6.572;2023-08-20T10:02:30;10.73;;;7.20;;
4084;SDS011;2057;50.858;6.572;2023-08-20T10:05:00;15.50;;;7.33;;
4084;SDS011;2057;50.858;6.572;2023-08-20T10:07:28;9.77;;;5.87;;
4084;SDS011;2057;50.858;6.572;2023-08-20T10:09:56;13.90;;;7.70;;
4084;SDS011;2057;50.858;6.572;2023-08-20T10:12:25;15.70;;;7.50;;
4084;SDS011;2057;50.858;6.572;2023-08-20T10:14:56;11.40;;;6.43;;
4084;SDS011;2057;50.858;6.572;2023-08-20T10:17:22;13.23;;;7.50;;
4084;SDS011;2057;50.858;6.572;2023-08-20T10:19:49;15.47;;;7.23;;
4084;SDS011;2057;50.858;6.572;2023-08-20T10:22:16;12.10;;;6.83;;
4084;SDS011;2057;50.858;6.572;2023-08-20T10:24:48;12.93;;;7.30;;
4084;SDS011;2057;50.858;6.572;2023-08-20T10:27:25;13.53;;;7.27;;
4084;SDS011;2057;50.858;6.572;2023-08-20T10:29:54;13.20;;;8.60;;
4084;SDS011;2057;50.858;6.572;2023-08-20T10:32:20;16.27;;;7.43;;
4084;SDS011;2057;50.858;6.572;2023-08-20T10:35:06;11.93;;;8.30;;
4084;SDS011;2057;50.858;6.572;2023-08-20T10:37:32;11.07;;;8.20;;
4084;SDS011;2057;50.858;6.572;2023-08-20T10:39:57;9.77;;;7.77;;
4084;SDS011;2057;50.858;6.572;2023-08-20T10:42:28;16.00;;;6.73;;
4084;SDS011;2057;50.858;6.572;2023-08-20T10:44:57;11.00;;;6.83;;
4084;SDS011;2057;50.858;6.572;2023-08-20T10:47:23;11.17;;;6.60;;
4084;SDS011;2057;50.858;6.572;2023-08-20T10:49:51;12.17;;;6.70;;
4084;SDS011;2057;50.858;6.572;2023-08-20T10:52:18;11.83;;;8.03;;
4084;SDS011;2057;50.858;6.572;2023-08-20T10:54:53;15.33;;;7.80;;
4084;SDS011;2057;50.858;6.572;2023-08-20T10:57:31;15.57;;;7.63;;
4084;SDS011;2057;50.858;6.572;2023-08-20T10:59:58;10.23;;;8.10;;
4084;SDS011;2057;50.858;6.572;2023-08-20T11:02:23;9.27;;;8.23;;
4084;SDS011;2057;50.858;6.572;2023-08-20T11:04:52;14.07;;;7.90;;
4084;SDS011;2057;50.858;6.572;2023-08-20T11:07:18;18.30;;;7.97;;
4084;SDS011;2057;50.858;6.572;2023-08-20T11:09:47;15.60;;;8.20;;
4084;SDS011;2057;50.858;6.572;2023-08-20T11:12:16;11.17;;;8.47;;
4084;SDS011;2057;50.858;6.572;2023-08-20T11:14:44;11.97;;;6.80;;
4084;SDS011;2057;50.858;6.572;2023-08-20T11:17:10;9.83;;;6.73;;
4084;SDS011;2057;50.858;6.572;2023-08-20T11:19:37;8.53;;;6.50;;
4084;SDS011;2057;50.858;6.572;2023-08-20T11:22:05;9.50;;;6.70;;
4084;SDS011;2057;50.858;6.572;2023-08-20T11:24:31;14.20;;;6.70;;
4084;SDS011;2057;50.858;6.572;2023-08-20T11:26:57;9.47;;;7.00;;
4084;SDS011;2057;50.858;6.572;2023-08-20T11:29:25;9.60;;;6.10;;
4084;SDS011;2057;50.858;6.572;2023-08-20T11:31:52;10.93;;;7.07;;
4084;SDS011;2057;50.858;6.572;2023-08-20T11:34:18;12.83;;;7.80;;
4084;SDS011;2057;50.858;6.572;2023-08-20T11:36:46;12.07;;;6.57;;
4084;SDS011;2057;50.858;6.572;2023-08-20T11:39:13;12.33;;;7.23;;
4084;SDS011;2057;50.858;6.572;2023-08-20T11:41:39;10.87;;;6.57;;
4084;SDS011;2057;50.858;6.572;2023-08-20T11:44:08;7.73;;;6.93;;
4084;SDS011;2057;50.858;6.572;2023-08-20T11:46:33;10.13;;;7.40;;
4084;SDS011;2057;50.858;6.572;2023-08-20T11:49:10;12.60;;;7.63;;
4084;SDS011;2057;50.858;6.572;2023-08-20T11:51:37;18.50;;;8.17;;
4084;SDS011;2057;50.858;6.572;2023-08-20T11:54:09;16.23;;;7.33;;
4084;SDS011;2057;50.858;6.572;2023-08-20T11:56:42;9.20;;;6.70;;
4084;SDS011;2057;50.858;6.572;2023-08-20T11:59:10;7.47;;;5.47;;
4084;SDS011;2057;50.858;6.572;2023-08-20T12:01:36;12.93;;;5.27;;
4084;SDS011;2057;50.858;6.572;2023-08-20T12:04:04;8.37;;;5.40;;
4084;SDS011;2057;50.858;6.572;2023-08-20T12:06:34;10.33;;;6.70;;
4084;SDS011;2057;50.858;6.572;2023-08-20T12:09:19;13.60;;;6.37;;
4084;SDS011;2057;50.858;6.572;2023-08-20T12:11:49;12.03;;;6.10;;
4084;SDS011;2057;50.858;6.572;2023-08-20T12:14:16;8.87;;;6.20;;
4084;SDS011;2057;50.858;6.572;2023-08-20T12:16:42;11.20;;;5.40;;
4084;SDS011;2057;50.858;6.572;2023-08-20T12:19:08;12.90;;;5.30;;
4084;SDS011;2057;50.858;6.572;2023-08-20T12:21:34;12.30;;;5.80;;
4084;SDS011;2057;50.858;6.572;2023-08-20T12:24:10;13.87;;;6.17;;
4084;SDS011;2057;50.858;6.572;2023-08-20T12:26:39;15.90;;;6.27;;
4084;SDS011;2057;50.858;6.572;2023-08-20T12:29:04;14.83;;;5.93;;
4084;SDS011;2057;50.858;6.572;2023-08-20T12:31:31;8.60;;;5.70;;
4084;SDS011;2057;50.858;6.572;2023-08-20T12:33:57;21.07;;;6.77;;
4084;SDS011;2057;50.858;6.572;2023-08-20T12:36:22;13.17;;;6.50;;
4084;SDS011;2057;50.858;6.572;2023-08-20T12:38:48;6.97;;;5.00;;
4084;SDS011;2057;50.858;6.572;2023-08-20T12:41:13;8.97;;;5.80;;
4084;SDS011;2057;50.858;6.572;2023-08-20T12:43:39;8.77;;;5.90;;
4084;SDS011;2057;50.858;6.572;2023-08-20T12:46:07;12.80;;;6.17;;
4084;SDS011;2057;50.858;6.572;2023-08-20T12:48:40;8.63;;;6.13;;
4084;SDS011;2057;50.858;6.572;2023-08-20T12:51:07;13.47;;;6.20;;
4084;SDS011;2057;50.858;6.572;2023-08-20T12:53:33;9.23;;;6.23;;
4084;SDS011;2057;50.858;6.572;2023-08-20T12:55:59;11.80;;;5.30;;
4084;SDS011;2057;50.858;6.572;2023-08-20T12:58:24;7.33;;;5.60;;
4084;SDS011;2057;50.858;6.572;2023-08-20T13:00:59;11.80;;;6.20;;
4084;SDS011;2057;50.858;6.572;2023-08-20T13:03:25;9.23;;;5.70;;
4084;SDS011;2057;50.858;6.572;2023-08-20T13:05:50;9.20;;;5.40;;
4084;SDS011;2057;50.858;6.572;2023-08-20T13:08:16;8.47;;;4.87;;
4084;SDS011;2057;50.858;6.572;2023-08-20T13:10:41;8.77;;;5.43;;
4084;SDS011;2057;50.858;6.572;2023-08-20T13:13:13;6.97;;;5.13;;
4084;SDS011;2057;50.858;6.572;2023-08-20T13:15:40;6.77;;;5.30;;
4084;SDS011;2057;50.858;6.572;2023-08-20T13:18:06;13.90;;;5.80;;
4084;SDS011;2057;50.858;6.572;2023-08-20T13:20:35;14.60;;;10.43;;
4084;SDS011;2057;50.858;6.572;2023-08-20T13:23:00;8.83;;;5.83;;
4084;SDS011;2057;50.858;6.572;2023-08-20T13:25:38;11.70;;;5.69;;
4084;SDS011;2057;50.858;6.572;2023-08-20T13:28:06;11.67;;;6.43;;
4084;SDS011;2057;50.858;6.572;2023-08-20T13:30:32;13.07;;;5.33;;
4084;SDS011;2057;50.858;6.572;2023-08-20T13:33:00;9.60;;;5.30;;
4084;SDS011;2057;50.858;6.572;2023-08-20T13:35:26;12.67;;;5.17;;
4084;SDS011;2057;50.858;6.572;2023-08-20T13:37:54;10.97;;;5.37;;
4084;SDS011;2057;50.858;6.572;2023-08-20T13:40:20;6.80;;;6.10;;
4084;SDS011;2057;50.858;6.572;2023-08-20T13:42:45;6.30;;;4.20;;
4084;SDS011;2057;50.858;6.572;2023-08-20T13:45:10;7.03;;;5.50;;
4084;SDS011;2057;50.858;6.572;2023-08-20T13:47:38;8.90;;;5.30;;
4084;SDS011;2057;50.858;6.572;2023-08-20T13:50:03;6.00;;;4.67;;
4084;SDS011;2057;50.858;6.572;2023-08-20T13:52:29;6.83;;;4.70;;
4084;SDS011;2057;50.858;6.572;2023-08-20T13:54:55;6.30;;;4.50;;
4084;SDS011;2057;50.858;6.572;2023-08-20T13:57:20;10.33;;;5.20;;
4084;SDS011;2057;50.858;6.572;2023-08-20T13:59:50;13.00;;;5.83;;
4084;SDS011;2057;50.858;6.572;2023-08-20T14:02:19;8.53;;;4.93;;
4084;SDS011;2057;50.858;6.572;2023-08-20T14:04:44;7.43;;;4.27;;
4084;SDS011;2057;50.858;6.572;2023-08-20T14:07:10;5.47;;;4.70;;
4084;SDS011;2057;50.858;6.572;2023-08-20T14:09:36;5.20;;;4.70;;
4084;SDS011;2057;50.858;6.572;2023-08-20T14:12:05;9.37;;;5.10;;
4084;SDS011;2057;50.858;6.572;2023-08-20T14:14:30;9.17;;;5.20;;
4084;SDS011;2057;50.858;6.572;2023-08-20T14:16:56;8.73;;;4.43;;
4084;SDS011;2057;50.858;6.572;2023-08-20T14:19:21;6.97;;;5.10;;
4084;SDS011;2057;50.858;6.572;2023-08-20T14:21:46;4.87;;;4.37;;
4084;SDS011;2057;50.858;6.572;2023-08-20T14:24:19;5.13;;;4.23;;
4084;SDS011;2057;50.858;6.572;2023-08-20T14:26:46;6.97;;;4.50;;
4084;SDS011;2057;50.858;6.572;2023-08-20T14:29:17;5.13;;;4.00;;
4084;SDS011;2057;50.858;6.572;2023-08-20T14:31:42;7.63;;;4.83;;
4084;SDS011;2057;50.858;6.572;2023-08-20T14:34:07;3.93;;;3.53;;
4084;SDS011;2057;50.858;6.572;2023-08-20T14:36:33;8.07;;;3.50;;
4084;SDS011;2057;50.858;6.572;2023-08-20T14:38:58;4.30;;;3.70;;
4084;SDS011;2057;50.858;6.572;2023-08-20T14:41:23;8.10;;;4.20;;
4084;SDS011;2057;50.858;6.572;2023-08-20T14:43:51;5.20;;;3.83;;
4084;SDS011;2057;50.858;6.572;2023-08-20T14:46:19;4.90;;;3.70;;
4084;SDS011;2057;50.858;6.572;2023-08-20T14:48:44;6.23;;;3.67;;
4084;SDS011;2057;50.858;6.572;2023-08-20T14:51:21;4.93;;;3.17;;
4084;SDS011;2057;50.858;6.572;2023-08-20T14:53:47;8.50;;;3.70;;
4084;SDS011;2057;50.858;6.572;2023-08-20T14:56:12;8.07;;;3.87;;
4084;SDS011;2057;50.858;6.572;2023-08-20T14:58:41;6.00;;;3.93;;
4084;SDS011;2057;50.858;6.572;2023-08-20T15:01:06;6.90;;;4.20;;
4084;SDS011;2057;50.858;6.572;2023-08-20T15:03:33;10.80;;;4.27;;
4084;SDS011;2057;50.858;6.572;2023-08-20T15:05:58;8.07;;;4.50;;
4084;SDS011;2057;50.858;6.572;2023-08-20T15:08:23;6.13;;;3.23;;
4084;SDS011;2057;50.858;6.572;2023-08-20T15:10:58;3.77;;;3.30;;
4084;SDS011;2057;50.858;6.572;2023-08-20T15:13:27;4.13;;;3.20;;